createdAt,value
2023-03-29T00:00:14.556Z,60.40
2023-03-29T00:01:35.195Z,60.30
2023-03-29T00:02:39.659Z,60.40
2023-03-29T00:03:45.785Z,60.20
2023-03-29T00:04:49.007Z,60.30
2023-03-29T00:05:51.345Z,60.40
2023-03-29T00:06:54.565Z,60.40
2023-03-29T00:08:01.746Z,60.40
2023-03-29T00:09:06.865Z,60.30
2023-03-29T00:10:11.361Z,60.00
2023-03-29T00:11:14.517Z,60.00
2023-03-29T00:12:17.446Z,60.00
2023-03-29T00:13:20.871Z,60.00
2023-03-29T00:14:23.038Z,59.90
2023-03-29T00:15:26.416Z,59.80
2023-03-29T00:16:28.653Z,60.10
2023-03-29T00:17:32.030Z,59.90
2023-03-29T00:18:34.570Z,60.00
2023-03-29T00:19:41.056Z,60.10
2023-03-29T00:20:44.191Z,60.00
2023-03-29T00:21:46.333Z,60.00
2023-03-29T00:22:50.746Z,59.90
2023-03-29T00:23:52.915Z,60.20
2023-03-29T00:24:58.260Z,60.50
2023-03-29T00:26:00.693Z,60.60
2023-03-29T00:27:03.963Z,60.20
2023-03-29T00:28:06.434Z,60.10
2023-03-29T00:29:09.834Z,60.00
2023-03-29T00:30:13.714Z,60.20
2023-03-29T00:31:18.903Z,60.50
2023-03-29T00:32:21.082Z,60.40
2023-03-29T00:33:24.236Z,60.20
2023-03-29T00:34:30.801Z,60.40
2023-03-29T00:35:35.936Z,60.50
2023-03-29T00:36:40.512Z,60.30
2023-03-29T00:37:43.819Z,60.40
2023-03-29T00:38:45.973Z,60.30
2023-03-29T00:39:49.113Z,60.20
2023-03-29T00:40:51.365Z,60.40
2023-03-29T00:41:55.024Z,61.00
2023-03-29T00:42:58.150Z,61.00
2023-03-29T00:44:03.099Z,60.90
2023-03-29T00:45:15.836Z,60.70
2023-03-29T00:46:19.078Z,60.80
2023-03-29T00:47:26.576Z,60.80
2023-03-29T00:48:30.287Z,60.90
2023-03-29T00:49:32.761Z,60.80
2023-03-29T00:50:42.142Z,60.70
2023-03-29T00:51:45.087Z,60.80
2023-03-29T00:52:55.059Z,60.70
2023-03-29T00:54:02.836Z,60.60
2023-03-29T00:55:11.350Z,60.90
2023-03-29T00:56:22.759Z,60.90
2023-03-29T00:57:29.169Z,60.80
2023-03-29T00:58:39.216Z,61.00
2023-03-29T00:59:43.913Z,60.90
2023-03-29T01:00:54.295Z,60.90
2023-03-29T01:02:05.317Z,60.70
2023-03-29T01:03:14.462Z,61.00
2023-03-29T01:04:26.062Z,60.90
2023-03-29T01:05:35.342Z,60.70
2023-03-29T01:06:45.358Z,60.60
2023-03-29T01:07:58.080Z,60.50
2023-03-29T01:09:08.046Z,60.50
2023-03-29T01:10:16.369Z,60.30
2023-03-29T01:11:27.520Z,60.20
2023-03-29T01:12:37.816Z,60.10
2023-03-29T01:13:47.858Z,60.10
2023-03-29T01:14:56.646Z,60.00
2023-03-29T01:16:02.245Z,60.00
2023-03-29T01:17:05.638Z,60.20
2023-03-29T01:18:09.407Z,60.40
2023-03-29T01:19:16.940Z,60.20
2023-03-29T01:20:26.194Z,60.30
2023-03-29T01:21:36.304Z,60.50
2023-03-29T01:23:00.645Z,60.50
2023-03-29T01:24:24.935Z,60.50
2023-03-29T01:25:39.902Z,60.70
2023-03-29T01:26:52.971Z,60.80
2023-03-29T01:28:03.601Z,60.80
2023-03-29T01:29:11.711Z,60.80
2023-03-29T01:30:20.425Z,60.90
2023-03-29T01:31:28.031Z,61.40
2023-03-29T01:32:39.059Z,60.90
2023-03-29T01:33:49.415Z,60.90
2023-03-29T01:34:59.604Z,61.10
2023-03-29T01:36:09.801Z,61.20
2023-03-29T01:37:21.907Z,61.30
2023-03-29T01:38:30.546Z,61.20
2023-03-29T01:39:35.064Z,61.20
2023-03-29T01:40:37.432Z,61.50
2023-03-29T01:41:49.275Z,61.40
2023-03-29T01:43:06.093Z,61.40
2023-03-29T01:44:17.878Z,61.20
2023-03-29T01:45:26.126Z,61.20
2023-03-29T01:46:38.549Z,61.10
2023-03-29T01:47:51.644Z,61.00
2023-03-29T01:49:01.952Z,60.90
2023-03-29T01:50:14.001Z,60.90
2023-03-29T01:51:25.043Z,60.90
2023-03-29T01:52:36.499Z,60.70
2023-03-29T01:53:47.491Z,60.80
2023-03-29T01:54:56.181Z,60.80
2023-03-29T01:56:07.647Z,60.70
2023-03-29T01:57:12.177Z,60.60
2023-03-29T01:58:19.975Z,60.60
2023-03-29T01:59:29.605Z,60.60
2023-03-29T02:00:36.812Z,60.80
2023-03-29T02:01:43.832Z,60.70
2023-03-29T02:02:50.240Z,60.70
2023-03-29T02:03:59.240Z,60.60
2023-03-29T02:05:03.118Z,60.60
2023-03-29T02:06:06.172Z,60.60
2023-03-29T02:07:11.533Z,60.70
2023-03-29T02:08:17.653Z,60.80
2023-03-29T02:09:21.053Z,60.80
2023-03-29T02:10:24.313Z,60.80
2023-03-29T02:11:29.284Z,60.80
2023-03-29T02:12:31.790Z,60.80
2023-03-29T02:13:36.926Z,60.80
2023-03-29T02:14:39.736Z,60.70
2023-03-29T02:15:45.077Z,60.70
2023-03-29T02:16:47.210Z,60.70
2023-03-29T02:17:51.129Z,60.70
2023-03-29T02:18:56.923Z,60.70
2023-03-29T02:20:14.315Z,60.70
2023-03-29T02:21:25.383Z,60.70
2023-03-29T02:22:36.796Z,60.60
2023-03-29T02:23:46.683Z,60.50
2023-03-29T02:24:54.781Z,60.50
2023-03-29T02:25:57.001Z,60.50
2023-03-29T02:27:01.576Z,60.30
2023-03-29T02:28:05.722Z,60.30
2023-03-29T02:29:10.483Z,60.30
2023-03-29T02:30:17.087Z,60.20
2023-03-29T02:31:27.147Z,60.30
2023-03-29T02:32:40.175Z,60.20
2023-03-29T02:33:52.085Z,60.20
2023-03-29T02:35:00.372Z,60.30
2023-03-29T02:36:10.354Z,60.20
2023-03-29T02:37:18.892Z,60.20
2023-03-29T02:38:27.716Z,60.70
2023-03-29T02:39:35.035Z,60.10
2023-03-29T02:40:41.866Z,60.10
2023-03-29T02:41:47.390Z,60.10
2023-03-29T02:42:51.393Z,60.20
2023-03-29T02:43:57.554Z,60.10
2023-03-29T02:45:02.195Z,60.10
2023-03-29T02:46:08.742Z,60.10
2023-03-29T02:47:18.397Z,60.20
2023-03-29T02:48:27.585Z,60.10
2023-03-29T02:49:31.191Z,60.10
2023-03-29T02:50:39.342Z,60.10
2023-03-29T02:51:41.531Z,60.10
2023-03-29T02:52:53.335Z,60.10
2023-03-29T02:54:04.090Z,60.20
2023-03-29T02:55:14.972Z,60.20
2023-03-29T02:56:18.138Z,60.20
2023-03-29T02:57:26.675Z,60.40
2023-03-29T02:58:31.641Z,60.30
2023-03-29T02:59:35.253Z,60.20
2023-03-29T03:00:44.752Z,60.20
2023-03-29T03:01:47.034Z,60.10
2023-03-29T03:02:50.913Z,60.10
2023-03-29T03:03:53.723Z,60.10
2023-03-29T03:04:57.608Z,60.10
2023-03-29T03:06:01.629Z,60.00
2023-03-29T03:07:06.178Z,60.00
2023-03-29T03:08:08.929Z,60.00
2023-03-29T03:09:12.018Z,60.00
2023-03-29T03:10:14.197Z,59.90
2023-03-29T03:11:17.317Z,59.80
2023-03-29T03:12:19.421Z,59.90
2023-03-29T03:13:22.571Z,60.00
2023-03-29T03:14:24.753Z,60.10
2023-03-29T03:15:28.482Z,60.10
2023-03-29T03:16:32.531Z,60.20
2023-03-29T03:17:39.937Z,60.10
2023-03-29T03:18:45.934Z,60.20
2023-03-29T03:19:48.080Z,60.30
2023-03-29T03:20:59.345Z,60.30
2023-03-29T03:22:01.705Z,60.40
2023-03-29T03:23:04.813Z,60.60
2023-03-29T03:24:07.691Z,60.60
2023-03-29T03:25:13.538Z,60.70
2023-03-29T03:26:17.964Z,60.70
2023-03-29T03:27:21.063Z,60.60
2023-03-29T03:28:25.190Z,60.60
2023-03-29T03:29:28.471Z,60.40
2023-03-29T03:30:31.589Z,60.40
2023-03-29T03:31:35.182Z,60.40
2023-03-29T03:32:38.556Z,60.40
2023-03-29T03:33:41.058Z,60.40
2023-03-29T03:34:44.169Z,60.40
2023-03-29T03:35:46.550Z,60.50
2023-03-29T03:36:50.643Z,60.50
2023-03-29T03:37:53.742Z,60.40
2023-03-29T03:38:55.899Z,60.40
2023-03-29T03:39:59.401Z,60.30
2023-03-29T03:41:02.225Z,60.50
2023-03-29T03:42:08.167Z,60.50
2023-03-29T03:43:10.682Z,60.50
2023-03-29T03:44:14.018Z,60.50
2023-03-29T03:45:16.641Z,60.60
2023-03-29T03:46:20.283Z,60.60
2023-03-29T03:47:24.733Z,60.50
2023-03-29T03:48:27.917Z,60.40
2023-03-29T03:49:30.056Z,60.40
2023-03-29T03:50:33.526Z,60.30
2023-03-29T03:51:35.674Z,60.20
2023-03-29T03:52:38.830Z,60.20
2023-03-29T03:53:41.034Z,60.10
2023-03-29T03:54:46.601Z,60.00
2023-03-29T03:55:49.229Z,60.00
2023-03-29T03:56:52.903Z,60.00
2023-03-29T03:57:55.344Z,59.90
2023-03-29T03:58:58.492Z,59.80
2023-03-29T04:00:00.709Z,59.80
2023-03-29T04:01:04.937Z,59.80
2023-03-29T04:02:07.635Z,59.70
2023-03-29T04:03:12.493Z,60.30
2023-03-29T04:04:16.393Z,59.80
2023-03-29T04:05:19.966Z,60.00
2023-03-29T04:06:22.700Z,60.20
2023-03-29T04:07:27.604Z,60.10
2023-03-29T04:08:30.340Z,60.30
2023-03-29T04:09:35.033Z,60.60
2023-03-29T04:10:37.270Z,60.60
2023-03-29T04:11:40.958Z,60.60
2023-03-29T04:12:43.098Z,60.60
2023-03-29T04:13:47.185Z,60.70
2023-03-29T04:14:49.342Z,60.70
2023-03-29T04:15:54.236Z,60.70
2023-03-29T04:16:57.009Z,60.70
2023-03-29T04:18:01.560Z,60.70
2023-03-29T04:19:05.124Z,61.30
2023-03-29T04:20:12.589Z,60.80
2023-03-29T04:21:15.174Z,60.80
2023-03-29T04:22:18.276Z,60.80
2023-03-29T04:23:20.460Z,60.80
2023-03-29T04:24:25.129Z,60.70
2023-03-29T04:25:28.426Z,60.60
2023-03-29T04:26:30.748Z,60.60
2023-03-29T04:27:33.838Z,60.60
2023-03-29T04:28:36.298Z,60.60
2023-03-29T04:29:39.427Z,60.80
2023-03-29T04:30:41.550Z,60.70
2023-03-29T04:31:44.743Z,60.60
2023-03-29T04:32:47.323Z,60.70
2023-03-29T04:33:51.524Z,60.70
2023-03-29T04:34:55.000Z,60.70
2023-03-29T04:35:58.230Z,60.70
2023-03-29T04:37:00.636Z,60.70
2023-03-29T04:38:04.290Z,60.90
2023-03-29T04:39:07.864Z,61.10
2023-03-29T04:40:14.127Z,61.00
2023-03-29T04:41:16.288Z,61.00
2023-03-29T04:42:19.762Z,60.90
2023-03-29T04:43:23.631Z,60.90
2023-03-29T04:44:28.025Z,61.00
2023-03-29T04:45:30.240Z,60.90
2023-03-29T04:46:34.602Z,61.00
2023-03-29T04:47:39.532Z,60.90
2023-03-29T04:48:43.585Z,60.90
2023-03-29T04:49:46.535Z,61.00
2023-03-29T04:50:51.092Z,61.60
2023-03-29T04:51:53.409Z,61.10
2023-03-29T04:52:57.118Z,61.00
2023-03-29T04:53:59.652Z,61.00
2023-03-29T04:55:03.467Z,60.90
2023-03-29T04:56:06.646Z,60.90
2023-03-29T04:57:09.932Z,60.80
2023-03-29T04:58:12.110Z,60.80
2023-03-29T04:59:15.317Z,60.70
2023-03-29T05:00:18.126Z,60.70
2023-03-29T05:01:21.311Z,60.70
2023-03-29T05:02:23.891Z,60.60
2023-03-29T05:03:27.631Z,60.50
2023-03-29T05:04:29.811Z,60.40
2023-03-29T05:05:33.015Z,60.30
2023-03-29T05:06:36.950Z,60.30
2023-03-29T05:07:40.198Z,60.40
2023-03-29T05:08:42.393Z,60.40
2023-03-29T05:09:47.344Z,60.40
2023-03-29T05:10:50.825Z,60.60
2023-03-29T05:11:54.056Z,60.50
2023-03-29T05:12:56.430Z,60.60
2023-03-29T05:14:02.476Z,60.70
2023-03-29T05:15:05.473Z,60.70
2023-03-29T05:16:11.109Z,60.80
2023-03-29T05:17:13.395Z,60.70
2023-03-29T05:18:16.510Z,60.70
2023-03-29T05:19:21.723Z,60.70
2023-03-29T05:20:25.008Z,60.70
2023-03-29T05:21:28.467Z,60.60
2023-03-29T05:22:32.903Z,60.60
2023-03-29T05:23:35.186Z,60.60
2023-03-29T05:24:38.329Z,61.10
2023-03-29T05:25:41.596Z,60.60
2023-03-29T05:26:44.832Z,60.60
2023-03-29T05:27:47.289Z,60.50
2023-03-29T05:28:50.692Z,60.50
2023-03-29T05:29:53.025Z,60.40
2023-03-29T05:31:04.419Z,60.40
2023-03-29T05:32:08.043Z,60.40
2023-03-29T05:33:11.495Z,60.30
2023-03-29T05:34:13.737Z,60.30
2023-03-29T05:35:16.988Z,60.20
2023-03-29T05:36:19.909Z,60.20
2023-03-29T05:37:23.114Z,60.10
2023-03-29T05:38:26.568Z,60.10
2023-03-29T05:39:29.654Z,60.10
2023-03-29T05:40:33.452Z,60.70
2023-03-29T05:41:36.534Z,60.10
2023-03-29T05:42:38.712Z,60.00
2023-03-29T05:43:41.861Z,59.90
2023-03-29T05:44:44.980Z,59.90
2023-03-29T05:45:47.121Z,59.80
2023-03-29T05:46:50.266Z,59.80
2023-03-29T05:47:52.429Z,60.00
2023-03-29T05:48:55.988Z,60.00
2023-03-29T05:49:58.074Z,60.10
2023-03-29T05:51:01.486Z,60.10
2023-03-29T05:52:03.913Z,60.10
2023-03-29T05:53:07.989Z,60.10
2023-03-29T05:54:11.672Z,60.00
2023-03-29T05:55:14.873Z,60.00
2023-03-29T05:56:17.008Z,60.00
2023-03-29T05:57:20.319Z,60.10
2023-03-29T05:58:26.885Z,60.00
2023-03-29T05:59:30.124Z,60.00
2023-03-29T06:00:32.265Z,60.00
2023-03-29T06:01:36.651Z,59.90
2023-03-29T06:02:38.873Z,59.90
2023-03-29T06:03:42.875Z,60.40
2023-03-29T06:04:46.747Z,60.30
2023-03-29T06:05:57.038Z,60.50
2023-03-29T06:07:02.129Z,60.70
2023-03-29T06:08:05.542Z,60.50
2023-03-29T06:09:09.418Z,60.40
2023-03-29T06:10:14.092Z,60.30
2023-03-29T06:11:17.648Z,60.40
2023-03-29T06:12:21.822Z,60.40
2023-03-29T06:13:25.019Z,60.30
2023-03-29T06:14:27.759Z,60.00
2023-03-29T06:15:30.864Z,60.00
2023-03-29T06:16:34.061Z,60.30
2023-03-29T06:17:38.037Z,60.40
2023-03-29T06:18:41.546Z,60.70
2023-03-29T06:19:44.438Z,60.30
2023-03-29T06:20:49.333Z,60.40
2023-03-29T06:21:53.218Z,60.40
2023-03-29T06:22:56.850Z,60.50
2023-03-29T06:24:00.256Z,60.40
2023-03-29T06:25:02.607Z,60.30
2023-03-29T06:26:07.930Z,60.30
2023-03-29T06:27:10.059Z,60.20
2023-03-29T06:28:13.240Z,60.10
2023-03-29T06:29:15.688Z,60.50
2023-03-29T06:30:19.858Z,59.80
2023-03-29T06:31:23.175Z,59.80
2023-03-29T06:32:25.737Z,59.50
2023-03-29T06:33:29.203Z,60.00
2023-03-29T06:34:32.381Z,59.40
2023-03-29T06:35:35.269Z,59.20
2023-03-29T06:36:38.953Z,58.80
2023-03-29T06:37:49.294Z,58.50
2023-03-29T06:38:52.502Z,58.30
2023-03-29T06:39:54.672Z,58.50
2023-03-29T06:41:03.939Z,58.60
2023-03-29T06:42:20.153Z,58.70
2023-03-29T06:43:25.121Z,58.70
2023-03-29T06:44:28.442Z,58.90
2023-03-29T06:45:33.814Z,59.20
2023-03-29T06:46:37.602Z,59.20
2023-03-29T06:47:40.696Z,58.40
2023-03-29T06:48:44.995Z,58.40
2023-03-29T06:49:47.130Z,58.40
2023-03-29T06:50:50.785Z,58.00
2023-03-29T06:51:53.927Z,58.30
2023-03-29T06:52:57.359Z,58.30
2023-03-29T06:54:00.488Z,58.40
2023-03-29T06:55:07.616Z,58.20
2023-03-29T06:56:11.239Z,58.10
2023-03-29T06:57:15.799Z,58.10
2023-03-29T06:58:17.994Z,58.00
2023-03-29T06:59:21.487Z,58.10
2023-03-29T07:00:28.009Z,58.10
2023-03-29T07:01:31.468Z,58.10
2023-03-29T07:02:34.631Z,58.10
2023-03-29T07:03:39.244Z,58.10
2023-03-29T07:04:42.478Z,57.90
2023-03-29T07:05:45.906Z,57.00
2023-03-29T07:06:51.236Z,57.20
2023-03-29T07:07:56.523Z,57.20
2023-03-29T07:09:01.803Z,57.10
2023-03-29T07:10:04.713Z,57.10
2023-03-29T07:11:08.520Z,56.80
2023-03-29T07:12:11.677Z,56.40
2023-03-29T07:13:15.674Z,56.60
2023-03-29T07:14:18.874Z,56.50
2023-03-29T07:15:23.145Z,56.10
2023-03-29T07:16:27.254Z,56.50
2023-03-29T07:17:29.534Z,56.40
2023-03-29T07:18:32.670Z,56.30
2023-03-29T07:19:35.065Z,56.30
2023-03-29T07:20:40.449Z,56.50
2023-03-29T07:21:43.679Z,56.40
2023-03-29T07:22:48.275Z,56.60
2023-03-29T07:23:52.216Z,56.90
2023-03-29T07:24:54.420Z,57.20
2023-03-29T07:25:57.498Z,57.20
2023-03-29T07:27:04.189Z,57.20
2023-03-29T07:28:08.268Z,56.60
2023-03-29T07:29:13.235Z,57.30
2023-03-29T07:30:22.827Z,57.40
2023-03-29T07:31:26.044Z,57.00
2023-03-29T07:32:31.027Z,57.30
2023-03-29T07:33:34.622Z,57.50
2023-03-29T07:34:36.992Z,57.50
2023-03-29T07:35:42.743Z,57.30
2023-03-29T07:36:45.165Z,56.40
2023-03-29T07:37:48.716Z,56.60
2023-03-29T07:38:53.377Z,56.30
2023-03-29T07:39:57.579Z,57.00
2023-03-29T07:41:04.186Z,57.70
2023-03-29T07:42:06.770Z,57.00
2023-03-29T07:43:10.985Z,56.70
2023-03-29T07:44:18.357Z,56.90
2023-03-29T07:45:26.727Z,57.00
2023-03-29T07:46:31.673Z,57.00
2023-03-29T07:47:34.079Z,57.30
2023-03-29T07:48:38.131Z,57.50
2023-03-29T07:49:40.492Z,57.70
2023-03-29T07:50:43.578Z,57.10
2023-03-29T07:51:46.929Z,56.70
2023-03-29T07:52:49.195Z,57.30
2023-03-29T07:53:52.356Z,56.90
2023-03-29T07:54:55.956Z,57.40
2023-03-29T07:55:59.103Z,58.20
2023-03-29T07:57:02.698Z,56.80
2023-03-29T07:58:06.209Z,57.50
2023-03-29T07:59:08.387Z,57.40
2023-03-29T08:00:16.030Z,57.70
2023-03-29T08:01:20.029Z,57.60
2023-03-29T08:02:23.500Z,57.30
2023-03-29T08:03:28.079Z,56.90
2023-03-29T08:04:31.759Z,56.60
2023-03-29T08:05:41.358Z,55.60
2023-03-29T08:06:45.763Z,55.80
2023-03-29T08:07:48.917Z,56.40
2023-03-29T08:08:52.282Z,56.50
2023-03-29T08:09:54.390Z,55.10
2023-03-29T08:10:57.487Z,55.80
2023-03-29T08:11:59.563Z,55.90
2023-03-29T08:13:07.414Z,56.10
2023-03-29T08:14:11.393Z,56.30
2023-03-29T08:15:17.019Z,56.10
2023-03-29T08:16:19.381Z,55.90
2023-03-29T08:17:22.540Z,55.80
2023-03-29T08:18:25.152Z,56.00
2023-03-29T08:19:28.679Z,56.30
2023-03-29T08:20:32.139Z,56.50
2023-03-29T08:21:34.307Z,55.90
2023-03-29T08:22:37.750Z,55.50
2023-03-29T08:23:41.267Z,55.80
2023-03-29T08:24:43.401Z,56.30
2023-03-29T08:25:47.169Z,56.10
2023-03-29T08:26:49.317Z,55.90
2023-03-29T08:27:52.371Z,55.70
2023-03-29T08:28:55.457Z,55.90
2023-03-29T08:29:57.646Z,56.00
2023-03-29T08:31:02.401Z,56.30
2023-03-29T08:32:06.019Z,56.00
2023-03-29T08:33:09.097Z,56.40
2023-03-29T08:34:11.270Z,56.30
2023-03-29T08:35:14.409Z,56.50
2023-03-29T08:36:16.680Z,55.90
2023-03-29T08:37:20.532Z,56.40
2023-03-29T08:38:23.638Z,56.80
2023-03-29T08:39:26.968Z,56.60
2023-03-29T08:40:30.676Z,56.10
2023-03-29T08:41:48.089Z,56.60
2023-03-29T08:43:15.653Z,55.90
2023-03-29T08:44:36.253Z,56.60
2023-03-29T08:45:51.140Z,56.80
2023-03-29T08:47:04.828Z,56.90
2023-03-29T08:48:21.880Z,56.50
2023-03-29T08:49:27.053Z,56.50
2023-03-29T08:50:36.573Z,56.30
2023-03-29T08:51:46.256Z,55.80
2023-03-29T08:52:55.523Z,55.80
2023-03-29T08:54:02.298Z,55.70
2023-03-29T08:55:13.365Z,55.80
2023-03-29T08:56:21.329Z,53.90
2023-03-29T08:57:30.480Z,54.70
2023-03-29T08:58:37.935Z,55.40
2023-03-29T08:59:43.239Z,54.90
2023-03-29T09:00:51.324Z,55.10
2023-03-29T09:01:59.361Z,55.00
2023-03-29T09:03:02.912Z,55.70
2023-03-29T09:04:10.696Z,54.50
2023-03-29T09:05:24.009Z,54.80
2023-03-29T09:06:26.193Z,54.20
2023-03-29T09:07:29.336Z,54.00
2023-03-29T09:08:32.565Z,54.90
2023-03-29T09:09:35.806Z,54.70
2023-03-29T09:10:45.921Z,55.00
2023-03-29T09:12:04.398Z,54.80
2023-03-29T09:13:26.485Z,54.60
2023-03-29T09:15:02.549Z,54.30
2023-03-29T09:16:14.475Z,54.50
2023-03-29T09:17:35.915Z,54.60
2023-03-29T09:18:52.487Z,54.80
2023-03-29T09:20:10.410Z,54.30
2023-03-29T09:21:21.528Z,54.30
2023-03-29T09:22:35.373Z,55.50
2023-03-29T09:24:16.803Z,54.10
2023-03-29T09:25:26.451Z,54.70
2023-03-29T09:26:40.728Z,55.00
2023-03-29T09:27:50.622Z,54.20
2023-03-29T09:29:07.668Z,54.60
2023-03-29T09:30:21.363Z,54.60
2023-03-29T09:31:31.096Z,54.20
2023-03-29T09:32:45.131Z,55.10
2023-03-29T09:33:55.763Z,55.00
2023-03-29T09:35:11.557Z,54.90
2023-03-29T09:36:23.993Z,54.50
2023-03-29T09:37:32.684Z,54.10
2023-03-29T09:38:41.370Z,54.50
2023-03-29T09:39:43.816Z,53.90
2023-03-29T09:40:52.646Z,55.10
2023-03-29T09:42:01.499Z,54.40
2023-03-29T09:43:09.223Z,54.40
2023-03-29T09:44:30.163Z,53.90
2023-03-29T09:45:38.359Z,53.40
2023-03-29T09:46:45.920Z,53.50
2023-03-29T09:47:56.935Z,53.50
2023-03-29T09:49:01.532Z,52.90
2023-03-29T09:50:23.481Z,52.50
2023-03-29T09:51:35.815Z,52.90
2023-03-29T09:52:39.214Z,53.30
2023-03-29T09:53:41.441Z,53.30
2023-03-29T09:54:45.752Z,53.10
2023-03-29T09:55:51.630Z,53.10
2023-03-29T09:56:54.962Z,52.60
2023-03-29T09:58:02.083Z,52.70
2023-03-29T09:59:05.242Z,52.40
2023-03-29T10:00:10.641Z,52.00
2023-03-29T10:01:17.348Z,52.40
2023-03-29T10:02:22.416Z,52.20
2023-03-29T10:03:29.478Z,52.50
2023-03-29T10:04:32.006Z,53.20
2023-03-29T10:05:37.828Z,53.20
2023-03-29T10:06:47.512Z,52.80
2023-03-29T10:07:54.637Z,53.60
2023-03-29T10:08:59.625Z,53.30
2023-03-29T10:10:01.949Z,52.90
2023-03-29T10:11:10.702Z,52.50
2023-03-29T10:12:14.915Z,52.40
2023-03-29T10:13:23.886Z,52.10
2023-03-29T10:14:33.975Z,52.30
2023-03-29T10:15:37.230Z,52.40
2023-03-29T10:16:41.928Z,53.00
2023-03-29T10:17:46.342Z,53.60
2023-03-29T10:18:51.814Z,53.20
2023-03-29T10:20:00.337Z,53.70
2023-03-29T10:21:06.133Z,53.40
2023-03-29T10:22:19.065Z,53.30
2023-03-29T10:23:22.215Z,53.00
2023-03-29T10:24:28.223Z,52.90
2023-03-29T10:25:33.193Z,53.20
2023-03-29T10:26:39.151Z,52.60
2023-03-29T10:27:44.741Z,52.70
2023-03-29T10:28:47.134Z,53.20
2023-03-29T10:29:51.676Z,52.40
2023-03-29T10:30:57.530Z,52.40
2023-03-29T10:31:59.805Z,52.20
2023-03-29T10:33:03.490Z,52.30
2023-03-29T10:34:09.110Z,52.60
2023-03-29T10:35:21.468Z,52.30
2023-03-29T10:36:28.353Z,52.20
2023-03-29T10:37:31.540Z,51.70
2023-03-29T10:38:38.360Z,51.90
2023-03-29T10:39:41.983Z,51.30
2023-03-29T10:40:47.409Z,52.10
2023-03-29T10:41:53.585Z,51.80
2023-03-29T10:43:00.248Z,51.60
2023-03-29T10:44:05.124Z,51.00
2023-03-29T10:45:25.251Z,51.70
2023-03-29T10:46:31.873Z,52.00
2023-03-29T10:47:34.972Z,52.10
2023-03-29T10:48:38.269Z,52.10
2023-03-29T10:49:45.094Z,52.40
2023-03-29T10:50:52.967Z,52.50
2023-03-29T10:51:56.097Z,51.80
2023-03-29T10:52:58.372Z,51.10
2023-03-29T10:54:02.438Z,50.50
2023-03-29T10:55:05.597Z,51.30
2023-03-29T10:56:25.541Z,50.80
2023-03-29T10:57:41.401Z,51.10
2023-03-29T10:59:15.244Z,50.70
2023-03-29T11:00:24.833Z,50.30
2023-03-29T11:01:37.915Z,50.20
2023-03-29T11:03:05.830Z,50.80
2023-03-29T11:04:23.794Z,50.40
2023-03-29T11:05:35.661Z,50.90
2023-03-29T11:06:47.862Z,51.00
2023-03-29T11:08:14.861Z,50.70
2023-03-29T11:09:27.776Z,50.40
2023-03-29T11:10:43.758Z,50.30
2023-03-29T11:12:16.081Z,49.90
2023-03-29T11:13:29.545Z,50.50
2023-03-29T11:14:46.138Z,51.30
2023-03-29T11:16:06.545Z,50.90
2023-03-29T11:17:26.567Z,51.00
2023-03-29T11:18:46.000Z,51.00
2023-03-29T11:20:12.607Z,51.10
2023-03-29T11:21:29.338Z,51.20
2023-03-29T11:22:42.436Z,50.80
2023-03-29T11:23:57.572Z,51.20
2023-03-29T11:25:17.420Z,51.50
2023-03-29T11:26:27.131Z,51.50
2023-03-29T11:27:37.429Z,51.70
2023-03-29T11:28:50.022Z,51.30
2023-03-29T11:30:08.069Z,50.80
2023-03-29T11:31:26.729Z,50.70
2023-03-29T11:32:42.240Z,51.00
2023-03-29T11:34:01.547Z,51.10
2023-03-29T11:35:18.622Z,50.50
2023-03-29T11:36:35.061Z,50.30
2023-03-29T11:37:48.577Z,51.30
2023-03-29T11:39:04.194Z,49.90
2023-03-29T11:40:29.804Z,50.10
2023-03-29T11:41:37.282Z,50.60
2023-03-29T11:42:45.128Z,50.80
2023-03-29T11:43:55.049Z,50.00
2023-03-29T11:45:02.242Z,49.50
2023-03-29T11:46:16.713Z,49.60
2023-03-29T11:47:23.108Z,50.40
2023-03-29T11:48:34.568Z,50.40
2023-03-29T11:49:43.779Z,49.90
2023-03-29T11:50:53.356Z,50.00
2023-03-29T11:52:06.283Z,49.20
2023-03-29T11:53:14.985Z,49.70
2023-03-29T11:54:27.051Z,49.60
2023-03-29T11:55:33.485Z,49.90
2023-03-29T11:56:45.102Z,50.40
2023-03-29T11:57:56.494Z,49.90
2023-03-29T11:59:07.497Z,49.90
2023-03-29T12:00:16.880Z,49.50
2023-03-29T12:01:32.473Z,50.20
2023-03-29T12:02:40.553Z,49.70
2023-03-29T12:03:50.997Z,50.10
2023-03-29T12:04:59.246Z,50.10
2023-03-29T12:06:11.097Z,49.40
2023-03-29T12:07:22.525Z,48.90
2023-03-29T12:08:31.136Z,48.90
2023-03-29T12:09:40.281Z,49.10
2023-03-29T12:10:49.408Z,49.30
2023-03-29T12:12:03.046Z,50.10
2023-03-29T12:13:15.886Z,49.50
2023-03-29T12:14:27.774Z,49.50
2023-03-29T12:15:39.022Z,49.70
2023-03-29T12:16:49.183Z,49.40
2023-03-29T12:18:01.965Z,50.10
2023-03-29T12:19:17.341Z,48.70
2023-03-29T12:20:26.962Z,49.00
2023-03-29T12:21:31.041Z,49.80
2023-03-29T12:22:35.738Z,50.00
2023-03-29T12:23:41.401Z,50.50
2023-03-29T12:24:50.457Z,50.80
2023-03-29T12:26:06.488Z,49.50
2023-03-29T12:27:25.976Z,48.80
2023-03-29T12:28:57.262Z,49.00
2023-03-29T12:30:28.145Z,49.00
2023-03-29T12:31:43.602Z,49.50
2023-03-29T12:33:21.496Z,50.00
2023-03-29T12:34:37.744Z,49.50
2023-03-29T12:35:54.192Z,49.30
2023-03-29T12:37:17.636Z,49.40
2023-03-29T12:38:25.111Z,50.00
2023-03-29T12:39:30.607Z,48.90
2023-03-29T12:40:42.878Z,48.10
2023-03-29T12:41:49.017Z,48.20
2023-03-29T12:42:56.892Z,48.30
2023-03-29T12:44:04.577Z,48.10
2023-03-29T12:45:18.159Z,47.70
2023-03-29T12:46:26.337Z,48.10
2023-03-29T12:47:39.647Z,48.20
2023-03-29T12:48:46.366Z,48.30
2023-03-29T12:49:54.857Z,48.30
2023-03-29T12:51:02.428Z,47.80
2023-03-29T12:52:16.598Z,47.90
2023-03-29T12:53:27.800Z,48.80
2023-03-29T12:54:33.004Z,48.10
2023-03-29T12:55:50.703Z,48.10
2023-03-29T12:57:01.090Z,48.90
2023-03-29T12:58:07.004Z,48.70
2023-03-29T12:59:27.239Z,49.20
2023-03-29T13:00:34.889Z,49.00
2023-03-29T13:01:41.398Z,48.90
2023-03-29T13:02:45.770Z,47.90
2023-03-29T13:03:51.910Z,46.70
2023-03-29T13:04:56.474Z,46.00
2023-03-29T13:06:05.414Z,47.20
2023-03-29T13:07:15.072Z,46.60
2023-03-29T13:08:27.797Z,46.90
2023-03-29T13:09:35.530Z,46.70
2023-03-29T13:10:43.116Z,46.90
2023-03-29T13:11:53.586Z,46.40
2023-03-29T13:12:57.876Z,46.00
2023-03-29T13:14:09.730Z,46.60
2023-03-29T13:15:26.635Z,47.10
2023-03-29T13:16:34.288Z,47.60
2023-03-29T13:17:52.338Z,46.60
2023-03-29T13:19:08.924Z,46.90
2023-03-29T13:20:37.347Z,47.20
2023-03-29T13:21:56.316Z,47.70
2023-03-29T13:23:17.952Z,47.90
2023-03-29T13:24:49.131Z,47.80
2023-03-29T13:26:12.155Z,48.40
2023-03-29T13:27:28.996Z,47.70
2023-03-29T13:28:47.214Z,47.80
2023-03-29T13:30:22.795Z,48.40
2023-03-29T13:31:36.195Z,47.70
2023-03-29T13:32:56.206Z,47.90
2023-03-29T13:34:14.977Z,48.10
2023-03-29T13:35:27.909Z,49.40
2023-03-29T13:36:57.837Z,48.10
2023-03-29T13:38:15.802Z,47.30
2023-03-29T13:39:23.783Z,47.10
2023-03-29T13:40:44.041Z,47.00
2023-03-29T13:41:48.988Z,46.60
2023-03-29T13:43:00.835Z,46.70
2023-03-29T13:44:04.083Z,46.60
2023-03-29T13:45:26.264Z,47.30
2023-03-29T13:46:41.874Z,47.80
2023-03-29T13:47:58.691Z,47.90
2023-03-29T13:49:15.484Z,48.00
2023-03-29T13:50:21.992Z,47.40
2023-03-29T13:51:34.820Z,46.90
2023-03-29T13:52:43.419Z,47.10
2023-03-29T13:53:53.814Z,46.10
2023-03-29T13:55:02.591Z,45.90
2023-03-29T13:56:10.562Z,46.80
2023-03-29T13:57:18.852Z,47.60
2023-03-29T13:58:35.877Z,47.50
2023-03-29T13:59:47.931Z,46.70
2023-03-29T14:00:56.531Z,46.40
2023-03-29T14:02:02.890Z,46.10
2023-03-29T14:03:13.773Z,45.90
2023-03-29T14:04:23.944Z,46.30
2023-03-29T14:05:32.987Z,46.20
2023-03-29T14:06:39.361Z,46.50
2023-03-29T14:07:48.364Z,46.70
2023-03-29T14:08:54.203Z,47.40
2023-03-29T14:10:01.230Z,47.40
2023-03-29T14:11:13.230Z,47.70
2023-03-29T14:12:18.011Z,47.70
2023-03-29T14:13:25.299Z,47.20
2023-03-29T14:14:32.090Z,47.60
2023-03-29T14:15:44.811Z,46.70
2023-03-29T14:16:48.089Z,46.60
2023-03-29T14:17:57.167Z,47.10
2023-03-29T14:19:06.053Z,47.40
2023-03-29T14:20:09.791Z,47.00
2023-03-29T14:21:15.741Z,47.00
2023-03-29T14:22:21.883Z,47.30
2023-03-29T14:23:28.057Z,47.50
2023-03-29T14:24:38.840Z,47.10
2023-03-29T14:25:42.174Z,47.10
2023-03-29T14:26:48.765Z,46.70